Terminal Aerodrome Forecast
Issued by NWS Paducah, KY

Home | Current Version | Previous Version | Text Only | Print | Product List | Glossary On
Versions: 1 2 3 4 5 6 7 8 9 10 11 12 13 14 15 16 17 18
938
FTUS43 KPAH 101720
TAFEVV
TAF
KEVV 101720Z 1018/1118 28007KT P6SM SCT025 OVC130
      TEMPO 1018/1020 BKN025
     FM110000 VRB04KT P6SM SCT030 OVC060
      TEMPO 1100/1104 5SM -SN BR OVC030
     FM110400 VRB03KT P6SM OVC025
     FM111500 01006KT P6SM SCT030=

USA.gov is the U.S. government's official web portal to all federal, state and local government web resources and services.